createdAt,value
2018-08-04T00:00:33.993Z,52.13
2018-08-04T00:03:01.615Z,52.74
2018-08-04T00:05:29.365Z,53.79
2018-08-04T00:07:57.086Z,54.44
2018-08-04T00:10:24.845Z,54.54
2018-08-04T00:12:52.941Z,54.12
2018-08-04T00:15:20.762Z,53.06
2018-08-04T00:17:48.949Z,54.15
2018-08-04T00:20:16.925Z,53.75
2018-08-04T00:22:44.730Z,53.15
2018-08-04T00:25:12.437Z,52.80
2018-08-04T00:27:40.134Z,52.57
2018-08-04T00:30:11.002Z,52.52
2018-08-04T00:32:38.753Z,53.32
2018-08-04T00:35:06.881Z,52.70
2018-08-04T00:37:34.532Z,52.47
2018-08-04T00:40:02.197Z,52.58
2018-08-04T00:42:29.870Z,53.12
2018-08-04T00:44:57.575Z,54.05
2018-08-04T00:47:25.184Z,52.77
2018-08-04T00:49:52.865Z,53.19
2018-08-04T00:52:20.565Z,53.20
2018-08-04T00:54:48.209Z,52.61
2018-08-04T00:57:15.973Z,52.44
2018-08-04T00:59:43.600Z,53.96
2018-08-04T01:02:11.293Z,54.17
2018-08-04T01:04:39.049Z,54.85
2018-08-04T01:07:07.025Z,54.50
2018-08-04T01:09:34.753Z,55.03
2018-08-04T01:12:02.488Z,54.78
2018-08-04T01:14:30.190Z,54.39
2018-08-04T01:16:58.424Z,54.84
2018-08-04T01:19:26.083Z,55.16
2018-08-04T01:21:59.088Z,54.67
2018-08-04T01:24:26.773Z,54.40
2018-08-04T01:26:54.394Z,54.56
2018-08-04T01:29:22.086Z,54.55
2018-08-04T01:31:49.742Z,54.63
2018-08-04T01:34:17.421Z,54.87
2018-08-04T01:36:45.149Z,54.79
2018-08-04T01:39:12.765Z,54.48
2018-08-04T01:41:40.437Z,54.82
2018-08-04T01:44:08.210Z,55.40
2018-08-04T01:46:35.965Z,54.36
2018-08-04T01:49:03.729Z,55.19
2018-08-04T01:51:31.423Z,54.34
2018-08-04T01:53:59.166Z,54.16
2018-08-04T01:56:26.785Z,55.98
2018-08-04T01:58:54.392Z,55.69
2018-08-04T02:01:22.121Z,56.04
2018-08-04T02:03:49.741Z,55.66
2018-08-04T02:06:17.494Z,55.88
2018-08-04T02:08:45.232Z,55.51
2018-08-04T02:11:12.894Z,56.39
2018-08-04T02:13:40.542Z,56.15
2018-08-04T02:16:08.270Z,55.92
2018-08-04T02:18:35.933Z,54.94
2018-08-04T02:21:03.616Z,55.28
2018-08-04T02:23:31.264Z,55.91
2018-08-04T02:25:58.991Z,56.06
2018-08-04T02:28:26.612Z,56.31
2018-08-04T02:30:54.222Z,55.30
2018-08-04T02:33:22.196Z,56.13
2018-08-04T02:38:24.245Z,56.46
2018-08-04T02:40:51.863Z,57.09
2018-08-04T02:43:19.482Z,57.57
2018-08-04T02:45:47.255Z,56.92
2018-08-04T02:48:15.004Z,55.96
2018-08-04T02:50:42.648Z,56.54
2018-08-04T02:53:10.282Z,56.51
2018-08-04T02:55:37.923Z,56.28
2018-08-04T02:58:05.645Z,57.16
2018-08-04T03:00:33.285Z,57.18
2018-08-04T03:03:00.978Z,57.33
2018-08-04T03:05:28.638Z,56.28
2018-08-04T03:07:56.280Z,56.07
2018-08-04T03:10:36.923Z,55.50
2018-08-04T03:13:05.217Z,55.79
2018-08-04T03:15:32.831Z,56.14
2018-08-04T03:18:00.525Z,56.55
2018-08-04T03:20:28.246Z,56.46
2018-08-04T03:22:55.861Z,55.84
2018-08-04T03:25:23.486Z,56.47
2018-08-04T03:27:51.118Z,57.53
2018-08-04T03:30:18.767Z,57.60
2018-08-04T03:32:46.542Z,57.60
2018-08-04T03:35:14.220Z,58.09
2018-08-04T03:37:41.957Z,59.39
2018-08-04T03:40:09.620Z,58.46
2018-08-04T03:42:37.633Z,58.04
2018-08-04T03:45:05.505Z,57.97
2018-08-04T03:47:33.146Z,58.48
2018-08-04T03:50:00.894Z,58.53
2018-08-04T03:52:28.588Z,58.42
2018-08-04T03:54:56.225Z,59.47
2018-08-04T03:57:23.842Z,58.94
2018-08-04T03:59:51.518Z,58.99
2018-08-04T04:02:19.518Z,58.78
2018-08-04T04:04:47.141Z,58.96
2018-08-04T04:07:15.078Z,59.02
2018-08-04T04:09:42.806Z,58.26
2018-08-04T04:12:10.458Z,58.68
2018-08-04T04:14:38.130Z,59.25
2018-08-04T04:17:05.830Z,59.66
2018-08-04T04:19:33.461Z,58.52
2018-08-04T04:22:01.098Z,58.33
2018-08-04T04:24:28.807Z,58.58
2018-08-04T04:26:56.417Z,58.48
2018-08-04T04:29:24.117Z,58.80
2018-08-04T04:31:51.854Z,58.51
2018-08-04T04:34:19.535Z,58.52
2018-08-04T04:36:47.344Z,57.95
2018-08-04T04:39:14.925Z,58.62
2018-08-04T04:41:42.633Z,58.34
2018-08-04T04:44:10.357Z,58.24
2018-08-04T04:46:39.489Z,57.94
2018-08-04T04:49:09.101Z,57.10
2018-08-04T04:51:36.797Z,57.80
2018-08-04T04:54:04.947Z,57.36
2018-08-04T04:56:32.724Z,57.66
2018-08-04T04:59:00.337Z,58.69
2018-08-04T05:01:28.234Z,58.66
2018-08-04T05:03:56.106Z,56.92
2018-08-04T05:06:23.837Z,56.13
2018-08-04T05:08:51.483Z,56.00
2018-08-04T05:11:19.153Z,56.00
2018-08-04T05:13:47.081Z,56.24
2018-08-04T05:16:14.828Z,55.69
2018-08-04T05:18:42.633Z,56.20
2018-08-04T05:21:10.333Z,56.33
2018-08-04T05:23:38.022Z,55.77
2018-08-04T05:26:05.806Z,55.68
2018-08-04T05:28:33.521Z,55.52
2018-08-04T05:31:01.182Z,55.21
2018-08-04T05:33:28.829Z,55.03
2018-08-04T05:35:56.676Z,55.15
2018-08-04T05:38:24.443Z,54.84
2018-08-04T05:40:52.141Z,55.43
2018-08-04T05:43:19.843Z,54.82
2018-08-04T05:45:47.470Z,55.06
2018-08-04T05:48:15.121Z,55.27
2018-08-04T05:50:42.761Z,53.57
2018-08-04T05:53:10.477Z,52.67
2018-08-04T05:55:38.135Z,53.39
2018-08-04T05:58:06.274Z,52.07
2018-08-04T06:00:33.882Z,52.38
2018-08-04T06:03:01.555Z,53.92
2018-08-04T06:05:29.212Z,52.69
2018-08-04T06:07:57.201Z,52.66
2018-08-04T06:10:37.386Z,52.17
2018-08-04T06:13:05.147Z,52.32
2018-08-04T06:15:32.833Z,50.88
2018-08-04T06:18:00.547Z,50.21
2018-08-04T06:20:28.339Z,50.78
2018-08-04T06:22:56.032Z,49.48
2018-08-04T06:25:23.726Z,49.19
2018-08-04T06:27:51.369Z,48.11
2018-08-04T06:30:19.034Z,49.02
2018-08-04T06:32:46.832Z,48.53
2018-08-04T06:35:14.470Z,47.50
2018-08-04T06:37:42.234Z,47.97
2018-08-04T06:40:10.007Z,47.95
2018-08-04T06:42:37.769Z,48.72
2018-08-04T06:45:05.966Z,49.65
2018-08-04T06:47:33.677Z,49.49
2018-08-04T06:50:01.477Z,49.52
2018-08-04T06:52:29.125Z,49.31
2018-08-04T06:54:56.845Z,48.81
2018-08-04T06:57:24.517Z,48.36
2018-08-04T06:59:53.098Z,46.35
2018-08-04T07:02:20.994Z,45.85
2018-08-04T07:04:48.841Z,45.81
2018-08-04T07:07:16.510Z,46.16
2018-08-04T07:09:44.213Z,45.64
2018-08-04T07:12:12.007Z,45.04
2018-08-04T07:14:39.749Z,44.95
2018-08-04T07:17:07.818Z,44.95
2018-08-04T07:19:35.454Z,43.53
2018-08-04T07:22:03.162Z,44.01
2018-08-04T07:24:30.902Z,44.99
2018-08-04T07:26:58.641Z,44.86
2018-08-04T07:29:26.391Z,44.68
2018-08-04T07:31:54.109Z,44.75
2018-08-04T07:34:22.133Z,45.46
2018-08-04T07:36:49.810Z,45.43
2018-08-04T07:39:17.475Z,45.19
2018-08-04T07:41:45.154Z,46.08
2018-08-04T07:44:12.946Z,46.73
2018-08-04T07:46:40.672Z,46.42
2018-08-04T07:49:08.339Z,46.79
2018-08-04T07:51:36.014Z,46.80
2018-08-04T07:54:03.700Z,46.94
2018-08-04T07:56:31.468Z,47.23
2018-08-04T07:58:59.121Z,47.58
2018-08-04T08:01:26.862Z,48.46
2018-08-04T08:03:54.622Z,47.80
2018-08-04T08:06:22.437Z,47.90
2018-08-04T08:08:50.139Z,48.85
2018-08-04T08:11:18.078Z,49.31
2018-08-04T08:13:45.794Z,48.70
2018-08-04T08:16:13.546Z,47.92
2018-08-04T08:18:41.217Z,48.49
2018-08-04T08:21:08.965Z,48.70
2018-08-04T08:23:36.599Z,48.10
2018-08-04T08:26:08.205Z,48.21
2018-08-04T08:28:36.262Z,46.89
2018-08-04T08:31:04.047Z,48.62
2018-08-04T08:33:31.916Z,48.26
2018-08-04T08:35:59.583Z,47.94
2018-08-04T08:38:27.662Z,47.50
2018-08-04T08:40:55.355Z,47.39
2018-08-04T08:43:23.024Z,47.14
2018-08-04T08:45:50.653Z,48.10
2018-08-04T08:48:18.424Z,47.56
2018-08-04T08:50:46.126Z,48.11
2018-08-04T08:53:13.896Z,48.38
2018-08-04T08:55:41.589Z,47.66
2018-08-04T08:58:10.023Z,47.04
2018-08-04T09:00:37.960Z,46.04
2018-08-04T09:03:06.086Z,45.24
2018-08-04T09:05:33.777Z,44.64
2018-08-04T09:08:01.423Z,43.72
2018-08-04T09:10:37.626Z,42.96
2018-08-04T09:13:05.389Z,42.80
2018-08-04T09:15:33.180Z,42.11
2018-08-04T09:18:00.818Z,40.97
2018-08-04T09:20:28.475Z,41.13
2018-08-04T09:22:56.250Z,40.45
2018-08-04T09:25:24.340Z,39.85
2018-08-04T09:27:52.356Z,39.68
2018-08-04T09:30:21.509Z,39.40
2018-08-04T09:32:49.405Z,39.25
2018-08-04T09:35:17.162Z,39.29
2018-08-04T09:37:45.318Z,37.66
2018-08-04T09:40:14.642Z,38.60
2018-08-04T09:42:43.459Z,39.01
2018-08-04T09:45:11.215Z,38.77
2018-08-04T09:47:39.670Z,38.27
2018-08-04T09:50:08.885Z,37.99
2018-08-04T09:52:36.650Z,37.13
2018-08-04T09:55:05.349Z,37.58
2018-08-04T09:57:33.105Z,38.04
2018-08-04T10:00:00.803Z,36.35
2018-08-04T10:02:28.521Z,37.17
2018-08-04T10:04:56.705Z,37.12
2018-08-04T10:07:24.472Z,36.71
2018-08-04T10:09:52.238Z,37.41
2018-08-04T10:12:19.968Z,36.83
2018-08-04T10:14:47.741Z,36.73
2018-08-04T10:17:15.419Z,34.49
2018-08-04T10:19:43.073Z,35.34
2018-08-04T10:22:11.565Z,36.41
2018-08-04T10:24:39.569Z,36.52
2018-08-04T10:27:07.371Z,35.75
2018-08-04T10:29:35.442Z,35.09
2018-08-04T10:32:03.227Z,35.57
2018-08-04T10:34:30.792Z,35.47
2018-08-04T10:36:58.454Z,34.92
2018-08-04T10:39:26.109Z,33.74
2018-08-04T10:41:53.809Z,33.60
2018-08-04T10:44:21.473Z,34.52
2018-08-04T10:46:49.233Z,34.42
2018-08-04T10:49:16.955Z,33.74
2018-08-04T10:51:44.734Z,32.65
2018-08-04T10:54:12.542Z,32.66
2018-08-04T10:56:40.169Z,33.09
2018-08-04T10:59:07.866Z,34.48
2018-08-04T11:01:35.643Z,34.02
2018-08-04T11:04:03.314Z,33.27
2018-08-04T11:06:31.034Z,31.70
2018-08-04T11:08:58.817Z,30.23
2018-08-04T11:11:26.731Z,31.00
2018-08-04T11:13:54.414Z,31.65
2018-08-04T11:16:22.058Z,32.15
2018-08-04T11:18:49.738Z,32.51
2018-08-04T11:21:17.389Z,32.52
2018-08-04T11:23:45.102Z,32.47
2018-08-04T11:26:12.764Z,32.38
2018-08-04T11:28:40.432Z,32.56
2018-08-04T11:31:08.154Z,31.90
2018-08-04T11:33:36.107Z,33.03
2018-08-04T11:36:03.782Z,32.67
2018-08-04T11:38:31.429Z,33.28
2018-08-04T11:40:59.105Z,33.12
2018-08-04T11:43:26.725Z,33.71
2018-08-04T11:45:54.451Z,32.68
2018-08-04T11:48:22.124Z,32.78
2018-08-04T11:50:49.823Z,33.10
2018-08-04T11:53:17.576Z,33.20
2018-08-04T11:55:45.199Z,33.00
2018-08-04T11:58:12.953Z,32.40
2018-08-04T12:00:40.592Z,29.60
2018-08-04T12:03:08.445Z,29.84
2018-08-04T12:05:36.061Z,28.78
2018-08-04T12:08:04.039Z,28.12
2018-08-04T12:10:37.957Z,28.11
2018-08-04T12:13:05.633Z,27.57
2018-08-04T12:15:33.322Z,27.50
2018-08-04T12:18:01.073Z,26.15
2018-08-04T12:20:28.822Z,25.59
2018-08-04T12:22:56.445Z,25.51
2018-08-04T12:25:24.103Z,25.31
2018-08-04T12:27:51.738Z,25.44
2018-08-04T12:30:19.463Z,24.42
2018-08-04T12:32:47.094Z,24.17
2018-08-04T12:35:14.785Z,22.59
2018-08-04T12:37:43.187Z,21.53
2018-08-04T12:40:10.950Z,22.61
2018-08-04T12:42:38.612Z,21.34
2018-08-04T12:45:06.460Z,21.80
2018-08-04T12:47:34.204Z,21.81
2018-08-04T12:50:01.859Z,20.09
2018-08-04T12:52:29.639Z,20.95
2018-08-04T12:54:57.542Z,21.04
2018-08-04T12:57:25.267Z,21.04
2018-08-04T12:59:53.030Z,22.04
2018-08-04T13:02:20.944Z,21.59
2018-08-04T13:04:48.682Z,21.76
2018-08-04T13:07:16.410Z,22.20
2018-08-04T13:09:44.121Z,22.49
2018-08-04T13:12:11.854Z,22.71
2018-08-04T13:14:39.488Z,22.38
2018-08-04T13:17:07.514Z,22.61
2018-08-04T13:19:35.139Z,22.05
2018-08-04T13:22:03.254Z,22.58
2018-08-04T13:24:31.103Z,22.46
2018-08-04T13:26:58.791Z,22.57
2018-08-04T13:29:26.533Z,22.94
2018-08-04T13:31:54.278Z,24.37
2018-08-04T13:34:21.918Z,22.79
2018-08-04T13:36:49.616Z,23.12
2018-08-04T13:39:17.218Z,22.87
2018-08-04T13:41:44.929Z,23.10
2018-08-04T13:44:12.645Z,22.86
2018-08-04T13:46:40.340Z,23.46
2018-08-04T13:49:08.034Z,22.58
2018-08-04T13:51:35.756Z,22.88
2018-08-04T13:54:03.386Z,22.62
2018-08-04T13:56:31.025Z,22.83
2018-08-04T13:58:58.662Z,22.37
2018-08-04T14:01:26.618Z,22.21
2018-08-04T14:03:54.315Z,22.67
2018-08-04T14:06:22.003Z,22.30
2018-08-04T14:08:49.695Z,23.01
2018-08-04T14:11:17.355Z,23.28
2018-08-04T14:13:45.025Z,23.37
2018-08-04T14:16:12.674Z,23.37
2018-08-04T14:18:40.357Z,22.60
2018-08-04T14:21:08.037Z,23.04
2018-08-04T14:23:35.769Z,22.33
2018-08-04T14:26:03.434Z,22.68
2018-08-04T14:28:31.196Z,22.50
2018-08-04T14:30:58.910Z,21.92
2018-08-04T14:33:26.638Z,22.41
2018-08-04T14:35:54.294Z,21.93
2018-08-04T14:38:21.909Z,21.37
2018-08-04T14:40:49.607Z,21.27
2018-08-04T14:43:17.291Z,20.35
2018-08-04T14:45:45.066Z,20.80
2018-08-04T14:48:12.677Z,21.24
2018-08-04T14:50:40.294Z,21.42
2018-08-04T14:53:07.925Z,21.06
2018-08-04T14:55:35.838Z,21.47
2018-08-04T14:58:03.482Z,22.09
2018-08-04T15:00:31.239Z,22.39
2018-08-04T15:02:58.881Z,22.34
2018-08-04T15:05:26.577Z,23.12
2018-08-04T15:07:54.191Z,22.92
2018-08-04T15:10:36.917Z,23.80
2018-08-04T15:13:05.289Z,23.44
2018-08-04T15:15:32.961Z,23.72
2018-08-04T15:18:00.589Z,23.82
2018-08-04T15:20:28.376Z,23.98
2018-08-04T15:22:56.028Z,24.27
2018-08-04T15:25:23.725Z,23.74
2018-08-04T15:27:51.439Z,23.87
2018-08-04T15:30:19.022Z,23.41
2018-08-04T15:32:46.673Z,23.71
2018-08-04T15:35:14.347Z,24.09
2018-08-04T15:37:42.007Z,23.94
2018-08-04T15:40:09.686Z,23.91
2018-08-04T15:42:37.305Z,23.83
2018-08-04T15:45:04.970Z,23.90
2018-08-04T15:47:32.679Z,24.44
2018-08-04T15:50:00.303Z,25.46
2018-08-04T15:52:27.997Z,24.76
2018-08-04T15:54:55.618Z,25.08
2018-08-04T15:57:23.306Z,24.45
2018-08-04T15:59:50.945Z,24.56
2018-08-04T16:02:18.614Z,24.25
2018-08-04T16:04:46.293Z,24.32
2018-08-04T16:07:14.117Z,24.05
2018-08-04T16:09:41.865Z,24.37
2018-08-04T16:12:09.602Z,24.83
2018-08-04T16:14:37.217Z,24.94
2018-08-04T16:17:04.949Z,24.34
2018-08-04T16:19:32.690Z,24.62
2018-08-04T16:22:00.315Z,25.34
2018-08-04T16:24:28.052Z,25.09
2018-08-04T16:26:55.600Z,25.35
2018-08-04T16:29:23.345Z,25.75
2018-08-04T16:31:50.989Z,25.67
2018-08-04T16:34:18.605Z,25.89
2018-08-04T16:36:46.298Z,25.75
2018-08-04T16:39:13.995Z,25.93
2018-08-04T16:41:41.658Z,26.08
2018-08-04T16:44:09.330Z,26.53
2018-08-04T16:46:36.964Z,25.95
2018-08-04T16:49:04.665Z,25.89
2018-08-04T16:51:32.305Z,26.44
2018-08-04T16:53:59.954Z,27.04
2018-08-04T16:56:27.585Z,26.34
2018-08-04T16:58:55.255Z,26.57
2018-08-04T17:01:22.938Z,26.56
2018-08-04T17:03:50.629Z,26.87
2018-08-04T17:06:18.258Z,26.98
2018-08-04T17:08:45.945Z,27.47
2018-08-04T17:11:13.605Z,27.71
2018-08-04T17:13:41.230Z,27.25
2018-08-04T17:16:09.273Z,27.43
2018-08-04T17:18:36.883Z,27.54
2018-08-04T17:21:04.555Z,27.80
2018-08-04T17:23:32.249Z,27.62
2018-08-04T17:25:59.929Z,28.04
2018-08-04T17:28:27.660Z,28.46
2018-08-04T17:30:55.293Z,28.22
2018-08-04T17:33:22.954Z,28.68
2018-08-04T17:35:50.606Z,28.38
2018-08-04T17:38:18.228Z,29.09
2018-08-04T17:40:45.937Z,29.42
2018-08-04T17:43:13.633Z,28.94
2018-08-04T17:45:41.277Z,29.34
2018-08-04T17:48:08.908Z,29.35
2018-08-04T17:50:36.637Z,29.87
2018-08-04T17:53:04.311Z,29.83
2018-08-04T17:55:32.074Z,29.52
2018-08-04T17:57:59.737Z,29.80
2018-08-04T18:00:27.482Z,29.46
2018-08-04T18:02:55.114Z,30.05
2018-08-04T18:05:22.801Z,30.26
2018-08-04T18:07:50.453Z,30.27
2018-08-04T18:10:36.413Z,30.46
2018-08-04T18:13:04.330Z,30.69
2018-08-04T18:15:32.069Z,31.06
2018-08-04T18:17:59.718Z,30.46
2018-08-04T18:20:27.435Z,30.03
2018-08-04T18:22:55.144Z,30.48
2018-08-04T18:25:22.797Z,29.87
2018-08-04T18:27:50.495Z,30.40
2018-08-04T18:30:18.158Z,30.61
2018-08-04T18:32:45.841Z,29.78
2018-08-04T18:35:13.468Z,30.62
2018-08-04T18:37:41.209Z,31.01
2018-08-04T18:40:08.802Z,30.93
2018-08-04T18:42:36.434Z,31.48
2018-08-04T18:45:05.121Z,31.63
2018-08-04T18:47:32.854Z,32.33
2018-08-04T18:50:00.529Z,31.25
2018-08-04T18:52:28.253Z,32.37
2018-08-04T18:54:55.908Z,31.38
2018-08-04T18:57:23.577Z,32.43
2018-08-04T18:59:51.208Z,33.77
2018-08-04T19:02:18.873Z,34.68
2018-08-04T19:04:46.589Z,35.01
2018-08-04T19:07:21.157Z,38.83
2018-08-04T19:09:48.845Z,42.34
2018-08-04T19:12:16.514Z,43.06
2018-08-04T19:14:44.121Z,45.36
2018-08-04T19:17:11.799Z,44.90
2018-08-04T19:19:39.458Z,45.14
2018-08-04T19:22:07.129Z,45.31
2018-08-04T19:24:34.753Z,44.87
2018-08-04T19:27:02.382Z,44.17
2018-08-04T19:29:30.014Z,41.96
2018-08-04T19:31:57.640Z,45.17
2018-08-04T19:34:25.253Z,44.73
2018-08-04T19:36:52.862Z,44.76
2018-08-04T19:39:20.491Z,44.56
2018-08-04T19:41:48.265Z,45.19
2018-08-04T19:44:15.885Z,45.01
2018-08-04T19:46:43.518Z,39.90
2018-08-04T19:49:11.149Z,40.84
2018-08-04T19:51:38.869Z,41.76
2018-08-04T19:54:06.481Z,43.22
2018-08-04T19:56:34.139Z,44.12
2018-08-04T19:59:01.893Z,44.25
2018-08-04T20:01:29.505Z,44.25
2018-08-04T20:03:57.224Z,43.75
2018-08-04T20:06:24.821Z,43.64
2018-08-04T20:08:52.520Z,44.03
2018-08-04T20:11:20.324Z,44.70
2018-08-04T20:13:47.933Z,45.52
2018-08-04T20:16:15.534Z,45.82
2018-08-04T20:18:43.146Z,46.30
2018-08-04T20:21:10.769Z,47.51
2018-08-04T20:23:38.374Z,47.72
2018-08-04T20:26:06.039Z,48.24
2018-08-04T20:28:33.656Z,47.84
2018-08-04T20:31:01.258Z,48.09
2018-08-04T20:33:28.933Z,48.05
2018-08-04T20:35:56.603Z,47.82
2018-08-04T20:38:24.245Z,48.07
2018-08-04T20:40:51.940Z,48.67
2018-08-04T20:43:19.620Z,49.22
2018-08-04T20:45:47.413Z,50.00
2018-08-04T20:48:15.113Z,50.03
2018-08-04T20:50:42.755Z,50.40
2018-08-04T20:53:10.466Z,50.49
2018-08-04T20:55:38.156Z,52.19
2018-08-04T20:58:05.811Z,52.33
2018-08-04T21:00:38.433Z,53.18
2018-08-04T21:03:08.822Z,53.48
2018-08-04T21:05:36.518Z,53.15
2018-08-04T21:08:04.712Z,53.99
2018-08-04T21:10:32.445Z,52.96
2018-08-04T21:13:00.129Z,52.92
2018-08-04T21:15:27.853Z,54.15
2018-08-04T21:17:55.462Z,54.36
2018-08-04T21:20:23.069Z,54.72
2018-08-04T21:22:51.033Z,54.40
2018-08-04T21:25:18.662Z,54.91
2018-08-04T21:27:46.666Z,54.74
2018-08-04T21:30:14.345Z,54.61
2018-08-04T21:32:42.135Z,53.79
2018-08-04T21:35:09.856Z,52.89
2018-08-04T21:37:37.580Z,52.80
2018-08-04T21:40:06.021Z,52.31
2018-08-04T21:42:33.657Z,53.36
2018-08-04T21:45:01.390Z,52.58
2018-08-04T21:47:29.033Z,52.33
2018-08-04T21:49:56.665Z,50.28
2018-08-04T21:52:24.476Z,49.76
2018-08-04T21:54:52.133Z,48.75
2018-08-04T21:57:20.305Z,49.09
2018-08-04T21:59:47.917Z,48.10
2018-08-04T22:02:15.713Z,48.13
2018-08-04T22:04:43.561Z,48.31
2018-08-04T22:07:54.202Z,48.65
2018-08-04T22:10:36.248Z,48.95
2018-08-04T22:13:04.846Z,49.13
2018-08-04T22:15:32.401Z,48.91
2018-08-04T22:18:00.125Z,47.74
2018-08-04T22:20:28.382Z,48.21
2018-08-04T22:22:58.248Z,47.38
2018-08-04T22:25:28.217Z,48.43
2018-08-04T22:27:56.281Z,48.15
2018-08-04T22:30:24.262Z,49.47
2018-08-04T22:32:52.129Z,51.04
2018-08-04T22:35:20.886Z,54.25
2018-08-04T22:37:48.505Z,53.25
2018-08-04T22:40:17.162Z,54.80
2018-08-04T22:42:45.591Z,55.28
2018-08-04T22:46:02.964Z,54.83
2018-08-04T22:48:30.698Z,55.12
2018-08-04T22:50:59.109Z,54.46
2018-08-04T22:53:26.773Z,54.81
2018-08-04T22:55:54.538Z,56.36
2018-08-04T22:58:22.181Z,55.41
2018-08-04T23:00:49.837Z,55.01
2018-08-04T23:03:17.760Z,56.41
2018-08-04T23:05:45.493Z,55.01
2018-08-04T23:08:13.561Z,56.04
2018-08-04T23:10:41.853Z,56.15
2018-08-04T23:13:10.662Z,55.86
2018-08-04T23:15:38.393Z,55.86
2018-08-04T23:18:06.297Z,55.92
2018-08-04T23:20:33.997Z,55.81
2018-08-04T23:23:01.878Z,56.68
2018-08-04T23:25:29.626Z,55.65
2018-08-04T23:27:57.245Z,56.08
2018-08-04T23:30:25.142Z,55.96
2018-08-04T23:32:53.483Z,56.98
2018-08-04T23:35:22.521Z,56.30
2018-08-04T23:37:50.249Z,55.53
2018-08-04T23:40:18.202Z,55.63
2018-08-04T23:42:45.892Z,56.75
2018-08-04T23:45:13.625Z,55.84
2018-08-04T23:47:41.245Z,56.33
2018-08-04T23:50:08.902Z,56.24
2018-08-04T23:52:36.628Z,55.41
2018-08-04T23:55:04.345Z,55.54
2018-08-04T23:57:32.038Z,55.19
2018-08-04T23:59:59.686Z,56.29
